sensor_id;sensor_type;location;lat;lon;timestamp;temperature;humidity
17437;DHT22;73152;52.198;5.422;2023-12-20T00:00:39;23.50;45.90
17437;DHT22;73152;52.198;5.422;2023-12-20T00:03:08;23.50;45.90
17437;DHT22;73152;52.198;5.422;2023-12-20T00:05:37;23.50;45.90
17437;DHT22;73152;52.198;5.422;2023-12-20T00:08:06;23.50;45.90
17437;DHT22;73152;52.198;5.422;2023-12-20T00:10:38;23.50;45.90
17437;DHT22;73152;52.198;5.422;2023-12-20T00:13:07;23.50;45.90
17437;DHT22;73152;52.198;5.422;2023-12-20T00:15:36;23.50;46.00
17437;DHT22;73152;52.198;5.422;2023-12-20T00:18:05;23.50;46.00
17437;DHT22;73152;52.198;5.422;2023-12-20T00:20:33;23.40;46.00
17437;DHT22;73152;52.198;5.422;2023-12-20T00:23:02;23.40;46.00
17437;DHT22;73152;52.198;5.422;2023-12-20T00:25:33;23.40;46.10
17437;DHT22;73152;52.198;5.422;2023-12-20T00:28:05;23.40;46.10
17437;DHT22;73152;52.198;5.422;2023-12-20T00:30:34;23.40;46.00
17437;DHT22;73152;52.198;5.422;2023-12-20T00:33:03;23.40;46.10
17437;DHT22;73152;52.198;5.422;2023-12-20T00:35:32;23.40;46.10
17437;DHT22;73152;52.198;5.422;2023-12-20T00:38:01;23.40;46.10
17437;DHT22;73152;52.198;5.422;2023-12-20T00:40:30;23.40;46.10
17437;DHT22;73152;52.198;5.422;2023-12-20T00:42:59;23.40;46.10
17437;DHT22;73152;52.198;5.422;2023-12-20T00:45:31;23.40;46.10
17437;DHT22;73152;52.198;5.422;2023-12-20T00:48:00;23.40;46.10
17437;DHT22;73152;52.198;5.422;2023-12-20T00:50:29;23.30;46.10
17437;DHT22;73152;52.198;5.422;2023-12-20T00:52:57;23.40;46.10
17437;DHT22;73152;52.198;5.422;2023-12-20T00:55:26;23.30;46.10
17437;DHT22;73152;52.198;5.422;2023-12-20T00:57:55;23.30;46.10
17437;DHT22;73152;52.198;5.422;2023-12-20T01:00:25;23.40;46.10
17437;DHT22;73152;52.198;5.422;2023-12-20T01:02:56;23.30;46.10
17437;DHT22;73152;52.198;5.422;2023-12-20T01:05:25;23.30;46.10
17437;DHT22;73152;52.198;5.422;2023-12-20T01:07:54;23.30;46.10
17437;DHT22;73152;52.198;5.422;2023-12-20T01:10:23;23.30;46.10
17437;DHT22;73152;52.198;5.422;2023-12-20T01:12:53;23.30;46.10
17437;DHT22;73152;52.198;5.422;2023-12-20T01:15:22;23.30;46.10
17437;DHT22;73152;52.198;5.422;2023-12-20T01:17:51;23.30;46.10
17437;DHT22;73152;52.198;5.422;2023-12-20T01:20:25;23.30;46.10
17437;DHT22;73152;52.198;5.422;2023-12-20T01:22:53;23.30;46.00
17437;DHT22;73152;52.198;5.422;2023-12-20T01:25:22;23.30;46.00
17437;DHT22;73152;52.198;5.422;2023-12-20T01:27:51;23.40;46.00
17437;DHT22;73152;52.198;5.422;2023-12-20T01:30:20;23.40;46.00
17437;DHT22;73152;52.198;5.422;2023-12-20T01:32:49;23.40;46.00
17437;DHT22;73152;52.198;5.422;2023-12-20T01:35:18;23.30;46.00
17437;DHT22;73152;52.198;5.422;2023-12-20T01:37:50;23.40;45.90
17437;DHT22;73152;52.198;5.422;2023-12-20T01:40:22;23.40;45.90
17437;DHT22;73152;52.198;5.422;2023-12-20T01:42:58;23.40;45.90
17437;DHT22;73152;52.198;5.422;2023-12-20T01:45:27;23.40;45.90
17437;DHT22;73152;52.198;5.422;2023-12-20T01:47:58;23.40;45.90
17437;DHT22;73152;52.198;5.422;2023-12-20T01:50:28;23.40;45.90
17437;DHT22;73152;52.198;5.422;2023-12-20T01:53:02;23.40;45.80
17437;DHT22;73152;52.198;5.422;2023-12-20T01:55:35;23.40;45.80
17437;DHT22;73152;52.198;5.422;2023-12-20T01:58:08;23.40;45.80
17437;DHT22;73152;52.198;5.422;2023-12-20T02:00:38;23.40;45.80
17437;DHT22;73152;52.198;5.422;2023-12-20T02:03:07;23.40;45.70
17437;DHT22;73152;52.198;5.422;2023-12-20T02:05:36;23.40;45.70
17437;DHT22;73152;52.198;5.422;2023-12-20T02:08:09;23.40;45.70
17437;DHT22;73152;52.198;5.422;2023-12-20T02:10:38;23.40;45.70
17437;DHT22;73152;52.198;5.422;2023-12-20T02:13:08;23.40;45.70
17437;DHT22;73152;52.198;5.422;2023-12-20T02:15:37;23.40;45.70
17437;DHT22;73152;52.198;5.422;2023-12-20T02:18:09;23.40;45.70
17437;DHT22;73152;52.198;5.422;2023-12-20T02:20:40;23.40;45.60
17437;DHT22;73152;52.198;5.422;2023-12-20T02:23:12;23.40;45.60
17437;DHT22;73152;52.198;5.422;2023-12-20T02:25:41;23.40;45.60
17437;DHT22;73152;52.198;5.422;2023-12-20T02:28:10;23.40;45.60
17437;DHT22;73152;52.198;5.422;2023-12-20T02:30:39;23.40;45.60
17437;DHT22;73152;52.198;5.422;2023-12-20T02:33:08;23.40;45.60
17437;DHT22;73152;52.198;5.422;2023-12-20T02:35:40;23.40;45.60
17437;DHT22;73152;52.198;5.422;2023-12-20T02:38:12;23.40;45.50
17437;DHT22;73152;52.198;5.422;2023-12-20T02:40:41;23.40;45.60
17437;DHT22;73152;52.198;5.422;2023-12-20T02:43:10;23.40;45.50
17437;DHT22;73152;52.198;5.422;2023-12-20T02:45:38;23.40;45.50
17437;DHT22;73152;52.198;5.422;2023-12-20T02:48:07;23.40;45.50
17437;DHT22;73152;52.198;5.422;2023-12-20T02:50:36;23.40;45.50
17437;DHT22;73152;52.198;5.422;2023-12-20T02:53:05;23.40;45.50
17437;DHT22;73152;52.198;5.422;2023-12-20T02:55:36;23.40;45.50
17437;DHT22;73152;52.198;5.422;2023-12-20T02:58:05;23.40;45.50
17437;DHT22;73152;52.198;5.422;2023-12-20T03:00:34;23.40;45.40
17437;DHT22;73152;52.198;5.422;2023-12-20T03:03:03;23.50;45.40
17437;DHT22;73152;52.198;5.422;2023-12-20T03:05:33;23.50;45.40
17437;DHT22;73152;52.198;5.422;2023-12-20T03:08:02;23.40;45.40
17437;DHT22;73152;52.198;5.422;2023-12-20T03:10:30;23.40;45.40
17437;DHT22;73152;52.198;5.422;2023-12-20T03:13:02;23.40;45.30
17437;DHT22;73152;52.198;5.422;2023-12-20T03:15:31;23.40;45.30
17437;DHT22;73152;52.198;5.422;2023-12-20T03:18:00;23.50;45.30
17437;DHT22;73152;52.198;5.422;2023-12-20T03:20:29;23.50;45.30
17437;DHT22;73152;52.198;5.422;2023-12-20T03:22:59;23.50;45.30
17437;DHT22;73152;52.198;5.422;2023-12-20T03:25:28;23.50;45.30
17437;DHT22;73152;52.198;5.422;2023-12-20T03:27:57;23.50;45.20
17437;DHT22;73152;52.198;5.422;2023-12-20T03:30:28;23.50;45.20
17437;DHT22;73152;52.198;5.422;2023-12-20T03:32:57;23.50;45.10
17437;DHT22;73152;52.198;5.422;2023-12-20T03:35:26;23.50;45.20
17437;DHT22;73152;52.198;5.422;2023-12-20T03:37:55;23.50;45.10
17437;DHT22;73152;52.198;5.422;2023-12-20T03:40:25;23.50;45.10
17437;DHT22;73152;52.198;5.422;2023-12-20T03:42:54;23.50;45.10
17437;DHT22;73152;52.198;5.422;2023-12-20T03:45:23;23.50;45.00
17437;DHT22;73152;52.198;5.422;2023-12-20T03:47:54;23.50;45.00
17437;DHT22;73152;52.198;5.422;2023-12-20T03:50:23;23.50;45.00
17437;DHT22;73152;52.198;5.422;2023-12-20T03:52:52;23.50;44.90
17437;DHT22;73152;52.198;5.422;2023-12-20T03:55:21;23.50;44.80
17437;DHT22;73152;52.198;5.422;2023-12-20T03:57:50;23.50;44.80
17437;DHT22;73152;52.198;5.422;2023-12-20T04:00:19;23.60;44.80
17437;DHT22;73152;52.198;5.422;2023-12-20T04:02:48;23.60;44.50
17437;DHT22;73152;52.198;5.422;2023-12-20T04:05:20;23.60;44.80
17437;DHT22;73152;52.198;5.422;2023-12-20T04:07:48;23.60;44.30
17437;DHT22;73152;52.198;5.422;2023-12-20T04:10:17;23.60;44.20
17437;DHT22;73152;52.198;5.422;2023-12-20T04:12:46;23.60;44.50
17437;DHT22;73152;52.198;5.422;2023-12-20T04:15:15;23.60;44.50
17437;DHT22;73152;52.198;5.422;2023-12-20T04:17:44;23.70;44.40
17437;DHT22;73152;52.198;5.422;2023-12-20T04:20:13;23.70;44.30
17437;DHT22;73152;52.198;5.422;2023-12-20T04:22:44;23.70;44.00
17437;DHT22;73152;52.198;5.422;2023-12-20T04:25:13;23.80;44.10
17437;DHT22;73152;52.198;5.422;2023-12-20T04:27:42;23.80;43.80
17437;DHT22;73152;52.198;5.422;2023-12-20T04:30:12;23.90;43.80
17437;DHT22;73152;52.198;5.422;2023-12-20T04:32:41;23.90;43.70
17437;DHT22;73152;52.198;5.422;2023-12-20T04:35:10;24.00;43.50
17437;DHT22;73152;52.198;5.422;2023-12-20T04:37:39;24.00;43.50
17437;DHT22;73152;52.198;5.422;2023-12-20T04:40:10;24.00;43.40
17437;DHT22;73152;52.198;5.422;2023-12-20T04:42:39;24.10;43.40
17437;DHT22;73152;52.198;5.422;2023-12-20T04:45:09;24.10;43.20
17437;DHT22;73152;52.198;5.422;2023-12-20T04:47:39;24.20;43.10
17437;DHT22;73152;52.198;5.422;2023-12-20T04:50:08;24.20;43.10
17437;DHT22;73152;52.198;5.422;2023-12-20T04:52:38;24.30;42.90
17437;DHT22;73152;52.198;5.422;2023-12-20T04:55:10;24.30;42.80
17437;DHT22;73152;52.198;5.422;2023-12-20T04:57:39;24.30;42.80
17437;DHT22;73152;52.198;5.422;2023-12-20T05:00:09;24.30;42.70
17437;DHT22;73152;52.198;5.422;2023-12-20T05:02:41;24.30;42.70
17437;DHT22;73152;52.198;5.422;2023-12-20T05:05:10;24.40;42.60
17437;DHT22;73152;52.198;5.422;2023-12-20T05:07:40;24.30;42.70
17437;DHT22;73152;52.198;5.422;2023-12-20T05:10:12;24.30;42.30
17437;DHT22;73152;52.198;5.422;2023-12-20T05:12:41;24.30;42.50
17437;DHT22;73152;52.198;5.422;2023-12-20T05:15:10;24.30;42.70
17437;DHT22;73152;52.198;5.422;2023-12-20T05:17:38;24.20;42.70
17437;DHT22;73152;52.198;5.422;2023-12-20T05:20:08;24.20;42.90
17437;DHT22;73152;52.198;5.422;2023-12-20T05:22:37;24.20;42.80
17437;DHT22;73152;52.198;5.422;2023-12-20T05:25:07;24.20;43.00
17437;DHT22;73152;52.198;5.422;2023-12-20T05:27:38;24.10;43.00
17437;DHT22;73152;52.198;5.422;2023-12-20T05:30:08;24.10;43.10
17437;DHT22;73152;52.198;5.422;2023-12-20T05:32:37;24.10;43.20
17437;DHT22;73152;52.198;5.422;2023-12-20T05:35:06;24.00;43.10
17437;DHT22;73152;52.198;5.422;2023-12-20T05:37:35;24.00;43.20
17437;DHT22;73152;52.198;5.422;2023-12-20T05:40:05;24.00;43.20
17437;DHT22;73152;52.198;5.422;2023-12-20T05:42:38;24.00;43.40
17437;DHT22;73152;52.198;5.422;2023-12-20T05:45:07;23.90;43.40
17437;DHT22;73152;52.198;5.422;2023-12-20T05:47:37;23.90;43.20
17437;DHT22;73152;52.198;5.422;2023-12-20T05:50:07;23.90;43.20
17437;DHT22;73152;52.198;5.422;2023-12-20T05:52:36;23.90;43.40
17437;DHT22;73152;52.198;5.422;2023-12-20T05:55:05;23.90;43.50
17437;DHT22;73152;52.198;5.422;2023-12-20T05:57:37;23.90;43.20
17437;DHT22;73152;52.198;5.422;2023-12-20T06:00:10;23.80;43.20
17437;DHT22;73152;52.198;5.422;2023-12-20T06:02:39;23.80;43.10
17437;DHT22;73152;52.198;5.422;2023-12-20T06:05:08;23.80;43.20
17437;DHT22;73152;52.198;5.422;2023-12-20T06:07:37;23.80;43.50
17437;DHT22;73152;52.198;5.422;2023-12-20T06:10:07;23.80;43.30
17437;DHT22;73152;52.198;5.422;2023-12-20T06:12:39;23.80;43.30
17437;DHT22;73152;52.198;5.422;2023-12-20T06:15:08;23.80;43.20
17437;DHT22;73152;52.198;5.422;2023-12-20T06:17:37;23.90;43.40
17437;DHT22;73152;52.198;5.422;2023-12-20T06:20:07;23.90;43.20
17437;DHT22;73152;52.198;5.422;2023-12-20T06:22:38;23.90;43.10
17437;DHT22;73152;52.198;5.422;2023-12-20T06:25:08;24.00;43.00
17437;DHT22;73152;52.198;5.422;2023-12-20T06:27:39;24.00;43.10
17437;DHT22;73152;52.198;5.422;2023-12-20T06:30:08;24.00;43.00
17437;DHT22;73152;52.198;5.422;2023-12-20T06:32:38;23.90;43.00
17437;DHT22;73152;52.198;5.422;2023-12-20T06:35:08;23.90;43.20
17437;DHT22;73152;52.198;5.422;2023-12-20T06:37:37;23.80;43.30
17437;DHT22;73152;52.198;5.422;2023-12-20T06:40:09;23.70;43.00
17437;DHT22;73152;52.198;5.422;2023-12-20T06:42:41;23.70;43.30
17437;DHT22;73152;52.198;5.422;2023-12-20T06:45:10;23.60;43.40
17437;DHT22;73152;52.198;5.422;2023-12-20T06:47:39;23.60;43.70
17437;DHT22;73152;52.198;5.422;2023-12-20T06:50:08;23.50;44.00
17437;DHT22;73152;52.198;5.422;2023-12-20T06:52:37;23.50;44.10
17437;DHT22;73152;52.198;5.422;2023-12-20T06:55:07;23.60;43.90
17437;DHT22;73152;52.198;5.422;2023-12-20T06:57:36;23.60;44.10
17437;DHT22;73152;52.198;5.422;2023-12-20T07:00:09;23.80;43.90
17437;DHT22;73152;52.198;5.422;2023-12-20T07:02:40;24.00;43.60
17437;DHT22;73152;52.198;5.422;2023-12-20T07:05:07;24.10;43.20
17437;DHT22;73152;52.198;5.422;2023-12-20T07:07:36;24.30;42.90
17437;DHT22;73152;52.198;5.422;2023-12-20T07:10:05;24.40;42.70
17437;DHT22;73152;52.198;5.422;2023-12-20T07:12:35;24.50;42.40
17437;DHT22;73152;52.198;5.422;2023-12-20T07:15:07;24.60;42.30
17437;DHT22;73152;52.198;5.422;2023-12-20T07:17:37;24.70;42.10
17437;DHT22;73152;52.198;5.422;2023-12-20T07:20:07;24.70;42.10
17437;DHT22;73152;52.198;5.422;2023-12-20T07:22:37;24.70;42.00
17437;DHT22;73152;52.198;5.422;2023-12-20T07:25:07;24.70;42.20
17437;DHT22;73152;52.198;5.422;2023-12-20T07:27:36;24.70;42.00
17437;DHT22;73152;52.198;5.422;2023-12-20T07:30:09;24.70;42.20
17437;DHT22;73152;52.198;5.422;2023-12-20T07:32:38;24.60;42.30
17437;DHT22;73152;52.198;5.422;2023-12-20T07:35:08;24.60;42.30
17437;DHT22;73152;52.198;5.422;2023-12-20T07:37:37;24.50;42.30
17437;DHT22;73152;52.198;5.422;2023-12-20T07:40:07;24.50;42.50
17437;DHT22;73152;52.198;5.422;2023-12-20T07:42:36;24.40;42.60
17437;DHT22;73152;52.198;5.422;2023-12-20T07:45:08;24.20;42.80
17437;DHT22;73152;52.198;5.422;2023-12-20T07:47:38;24.20;42.80
17437;DHT22;73152;52.198;5.422;2023-12-20T07:50:07;24.10;42.90
17437;DHT22;73152;52.198;5.422;2023-12-20T07:52:36;24.00;43.20
17437;DHT22;73152;52.198;5.422;2023-12-20T07:55:06;23.90;43.30
17437;DHT22;73152;52.198;5.422;2023-12-20T07:57:35;23.90;43.30
17437;DHT22;73152;52.198;5.422;2023-12-20T08:00:08;23.80;43.50
17437;DHT22;73152;52.198;5.422;2023-12-20T08:02:38;23.70;43.80
17437;DHT22;73152;52.198;5.422;2023-12-20T08:05:07;23.70;43.70
17437;DHT22;73152;52.198;5.422;2023-12-20T08:07:36;23.60;43.70
17437;DHT22;73152;52.198;5.422;2023-12-20T08:10:06;23.50;43.90
17437;DHT22;73152;52.198;5.422;2023-12-20T08:12:36;23.50;44.20
17437;DHT22;73152;52.198;5.422;2023-12-20T08:15:09;23.40;44.30
17437;DHT22;73152;52.198;5.422;2023-12-20T08:17:38;23.30;44.10
17437;DHT22;73152;52.198;5.422;2023-12-20T08:20:07;23.30;44.30
17437;DHT22;73152;52.198;5.422;2023-12-20T08:22:36;23.20;44.60
17437;DHT22;73152;52.198;5.422;2023-12-20T08:25:06;23.20;44.70
17437;DHT22;73152;52.198;5.422;2023-12-20T08:27:39;23.10;44.80
17437;DHT22;73152;52.198;5.422;2023-12-20T08:30:11;23.10;44.80
17437;DHT22;73152;52.198;5.422;2023-12-20T08:32:42;23.10;44.80
17437;DHT22;73152;52.198;5.422;2023-12-20T08:35:11;23.00;45.10
17437;DHT22;73152;52.198;5.422;2023-12-20T08:37:40;23.00;44.90
17437;DHT22;73152;52.198;5.422;2023-12-20T08:40:10;22.90;45.20
17437;DHT22;73152;52.198;5.422;2023-12-20T08:42:39;22.90;45.30
17437;DHT22;73152;52.198;5.422;2023-12-20T08:45:11;22.90;45.30
17437;DHT22;73152;52.198;5.422;2023-12-20T08:47:40;23.00;45.00
17437;DHT22;73152;52.198;5.422;2023-12-20T08:50:11;23.20;44.50
17437;DHT22;73152;52.198;5.422;2023-12-20T08:52:41;23.50;44.00
17437;DHT22;73152;52.198;5.422;2023-12-20T08:55:10;23.80;43.00
17437;DHT22;73152;52.198;5.422;2023-12-20T08:57:40;24.00;40.70
17437;DHT22;73152;52.198;5.422;2023-12-20T09:00:13;24.10;40.20
17437;DHT22;73152;52.198;5.422;2023-12-20T09:02:43;24.20;39.90
17437;DHT22;73152;52.198;5.422;2023-12-20T09:05:11;24.50;39.60
17437;DHT22;73152;52.198;5.422;2023-12-20T09:07:40;24.80;39.00
17437;DHT22;73152;52.198;5.422;2023-12-20T09:10:09;25.30;38.90
17437;DHT22;73152;52.198;5.422;2023-12-20T09:12:39;26.10;37.50
17437;DHT22;73152;52.198;5.422;2023-12-20T09:15:11;27.10;35.90
17437;DHT22;73152;52.198;5.422;2023-12-20T09:17:40;28.50;33.60
17437;DHT22;73152;52.198;5.422;2023-12-20T09:20:10;29.70;32.00
17437;DHT22;73152;52.198;5.422;2023-12-20T09:22:39;31.10;30.30
17437;DHT22;73152;52.198;5.422;2023-12-20T09:25:10;32.00;29.00
17437;DHT22;73152;52.198;5.422;2023-12-20T09:27:40;32.90;27.50
17437;DHT22;73152;52.198;5.422;2023-12-20T09:30:12;33.50;26.70
17437;DHT22;73152;52.198;5.422;2023-12-20T09:32:41;33.60;26.30
17437;DHT22;73152;52.198;5.422;2023-12-20T09:35:10;33.50;26.40
17437;DHT22;73152;52.198;5.422;2023-12-20T09:37:40;33.10;26.80
17437;DHT22;73152;52.198;5.422;2023-12-20T09:40:13;32.70;27.30
17437;DHT22;73152;52.198;5.422;2023-12-20T09:42:48;32.10;28.10
17437;DHT22;73152;52.198;5.422;2023-12-20T09:45:26;31.40;28.50
17437;DHT22;73152;52.198;5.422;2023-12-20T09:47:55;30.80;29.30
17437;DHT22;73152;52.198;5.422;2023-12-20T09:50:26;30.10;30.10
17437;DHT22;73152;52.198;5.422;2023-12-20T09:52:58;29.50;31.00
17437;DHT22;73152;52.198;5.422;2023-12-20T09:55:30;29.00;31.30
17437;DHT22;73152;52.198;5.422;2023-12-20T09:58:01;28.60;32.10
17437;DHT22;73152;52.198;5.422;2023-12-20T10:00:34;28.10;32.70
17437;DHT22;73152;52.198;5.422;2023-12-20T10:03:04;27.70;33.10
17437;DHT22;73152;52.198;5.422;2023-12-20T10:05:34;27.40;33.60
17437;DHT22;73152;52.198;5.422;2023-12-20T10:08:04;27.00;34.00
17437;DHT22;73152;52.198;5.422;2023-12-20T10:10:33;26.60;34.40
17437;DHT22;73152;52.198;5.422;2023-12-20T10:13:03;26.30;34.90
17437;DHT22;73152;52.198;5.422;2023-12-20T10:15:38;26.10;35.20
17437;DHT22;73152;52.198;5.422;2023-12-20T10:18:07;26.10;35.30
17437;DHT22;73152;52.198;5.422;2023-12-20T10:20:36;26.30;35.20
17437;DHT22;73152;52.198;5.422;2023-12-20T10:23:05;26.70;34.40
17437;DHT22;73152;52.198;5.422;2023-12-20T10:25:34;27.60;33.00
17437;DHT22;73152;52.198;5.422;2023-12-20T10:28:10;28.70;31.30
17437;DHT22;73152;52.198;5.422;2023-12-20T10:30:45;29.80;30.10
17437;DHT22;73152;52.198;5.422;2023-12-20T10:33:24;30.80;28.80
17437;DHT22;73152;52.198;5.422;2023-12-20T10:35:54;31.40;27.50
17437;DHT22;73152;52.198;5.422;2023-12-20T10:38:24;31.90;27.00
17437;DHT22;73152;52.198;5.422;2023-12-20T10:40:57;32.20;26.60
17437;DHT22;73152;52.198;5.422;2023-12-20T10:43:27;32.40;26.40
17437;DHT22;73152;52.198;5.422;2023-12-20T10:46:00;32.30;27.00
17437;DHT22;73152;52.198;5.422;2023-12-20T10:48:32;32.10;27.50
17437;DHT22;73152;52.198;5.422;2023-12-20T10:51:01;31.90;27.60
17437;DHT22;73152;52.198;5.422;2023-12-20T10:53:32;31.50;27.90
17437;DHT22;73152;52.198;5.422;2023-12-20T10:56:03;31.10;28.60
17437;DHT22;73152;52.198;5.422;2023-12-20T10:58:34;30.60;29.40
17437;DHT22;73152;52.198;5.422;2023-12-20T11:01:13;30.00;30.00
17437;DHT22;73152;52.198;5.422;2023-12-20T11:03:46;29.50;30.30
17437;DHT22;73152;52.198;5.422;2023-12-20T11:06:33;29.00;31.10
17437;DHT22;73152;52.198;5.422;2023-12-20T11:09:14;28.60;31.80
17437;DHT22;73152;52.198;5.422;2023-12-20T11:11:59;28.20;32.40
17437;DHT22;73152;52.198;5.422;2023-12-20T11:14:42;27.80;32.50
17437;DHT22;73152;52.198;5.422;2023-12-20T11:17:17;27.50;32.90
17437;DHT22;73152;52.198;5.422;2023-12-20T11:20:05;27.20;33.80
17437;DHT22;73152;52.198;5.422;2023-12-20T11:22:37;26.90;34.60
17437;DHT22;73152;52.198;5.422;2023-12-20T11:25:09;26.60;34.70
17437;DHT22;73152;52.198;5.422;2023-12-20T11:27:41;26.40;35.20
17437;DHT22;73152;52.198;5.422;2023-12-20T11:30:12;26.20;35.20
17437;DHT22;73152;52.198;5.422;2023-12-20T11:32:46;26.00;35.80
17437;DHT22;73152;52.198;5.422;2023-12-20T11:35:19;25.80;36.20
17437;DHT22;73152;52.198;5.422;2023-12-20T11:37:49;25.60;36.70
17437;DHT22;73152;52.198;5.422;2023-12-20T11:40:19;25.50;36.90
17437;DHT22;73152;52.198;5.422;2023-12-20T11:42:50;25.30;37.10
17437;DHT22;73152;52.198;5.422;2023-12-20T11:45:21;25.10;37.30
17437;DHT22;73152;52.198;5.422;2023-12-20T11:47:56;25.00;37.90
17437;DHT22;73152;52.198;5.422;2023-12-20T11:50:26;24.90;38.00
17437;DHT22;73152;52.198;5.422;2023-12-20T11:52:55;24.70;38.20
17437;DHT22;73152;52.198;5.422;2023-12-20T11:55:24;24.60;36.70
17437;DHT22;73152;52.198;5.422;2023-12-20T11:57:53;24.40;36.70
17437;DHT22;73152;52.198;5.422;2023-12-20T12:00:22;24.30;36.50
17437;DHT22;73152;52.198;5.422;2023-12-20T12:03:00;24.20;36.50
17437;DHT22;73152;52.198;5.422;2023-12-20T12:05:31;24.10;36.40
17437;DHT22;73152;52.198;5.422;2023-12-20T12:08:00;24.00;36.40
17437;DHT22;73152;52.198;5.422;2023-12-20T12:10:29;23.80;37.10
17437;DHT22;73152;52.198;5.422;2023-12-20T12:12:58;23.70;37.30
17437;DHT22;73152;52.198;5.422;2023-12-20T12:15:28;23.60;37.50
17437;DHT22;73152;52.198;5.422;2023-12-20T12:18:00;23.60;37.90
17437;DHT22;73152;52.198;5.422;2023-12-20T12:20:29;23.50;37.90
17437;DHT22;73152;52.198;5.422;2023-12-20T12:22:58;23.50;38.30
17437;DHT22;73152;52.198;5.422;2023-12-20T12:25:29;23.80;38.10
17437;DHT22;73152;52.198;5.422;2023-12-20T12:27:59;24.30;37.10
17437;DHT22;73152;52.198;5.422;2023-12-20T12:30:28;24.90;36.20
17437;DHT22;73152;52.198;5.422;2023-12-20T12:33:00;26.00;34.60
17437;DHT22;73152;52.198;5.422;2023-12-20T12:35:28;27.00;33.10
17437;DHT22;73152;52.198;5.422;2023-12-20T12:37:59;28.00;31.90
17437;DHT22;73152;52.198;5.422;2023-12-20T12:40:28;29.10;30.20
17437;DHT22;73152;52.198;5.422;2023-12-20T12:42:57;29.90;29.20
17437;DHT22;73152;52.198;5.422;2023-12-20T12:45:26;30.60;28.20
17437;DHT22;73152;52.198;5.422;2023-12-20T12:47:55;30.90;27.60
17437;DHT22;73152;52.198;5.422;2023-12-20T12:50:26;31.00;27.60
17437;DHT22;73152;52.198;5.422;2023-12-20T12:52:55;30.90;27.80
17437;DHT22;73152;52.198;5.422;2023-12-20T12:55:24;30.60;28.00
17437;DHT22;73152;52.198;5.422;2023-12-20T12:57:53;30.00;28.70
17437;DHT22;73152;52.198;5.422;2023-12-20T13:00:22;29.60;29.20
17437;DHT22;73152;52.198;5.422;2023-12-20T13:02:51;29.10;30.00
17437;DHT22;73152;52.198;5.422;2023-12-20T13:05:20;28.70;30.20
17437;DHT22;73152;52.198;5.422;2023-12-20T13:07:51;28.40;31.10
17437;DHT22;73152;52.198;5.422;2023-12-20T13:10:20;28.00;31.40
17437;DHT22;73152;52.198;5.422;2023-12-20T13:12:49;27.70;32.20
17437;DHT22;73152;52.198;5.422;2023-12-20T13:15:18;27.40;32.40
17437;DHT22;73152;52.198;5.422;2023-12-20T13:17:47;27.00;33.00
17437;DHT22;73152;52.198;5.422;2023-12-20T13:20:16;26.70;33.50
17437;DHT22;73152;52.198;5.422;2023-12-20T13:22:45;26.40;33.90
17437;DHT22;73152;52.198;5.422;2023-12-20T13:25:16;26.10;34.50
17437;DHT22;73152;52.198;5.422;2023-12-20T13:27:45;25.90;34.60
17437;DHT22;73152;52.198;5.422;2023-12-20T13:30:15;25.70;35.20
17437;DHT22;73152;52.198;5.422;2023-12-20T13:32:44;25.40;35.50
17437;DHT22;73152;52.198;5.422;2023-12-20T13:35:14;25.30;36.00
17437;DHT22;73152;52.198;5.422;2023-12-20T13:37:43;25.10;36.30
17437;DHT22;73152;52.198;5.422;2023-12-20T13:40:13;25.20;36.20
17437;DHT22;73152;52.198;5.422;2023-12-20T13:42:44;25.40;35.90
17437;DHT22;73152;52.198;5.422;2023-12-20T13:45:14;25.80;35.30
17437;DHT22;73152;52.198;5.422;2023-12-20T13:47:45;26.20;34.60
17437;DHT22;73152;52.198;5.422;2023-12-20T13:50:15;26.70;33.90
17437;DHT22;73152;52.198;5.422;2023-12-20T13:52:44;27.20;33.30
17437;DHT22;73152;52.198;5.422;2023-12-20T13:55:15;27.70;32.60
17437;DHT22;73152;52.198;5.422;2023-12-20T13:57:47;28.00;32.00
17437;DHT22;73152;52.198;5.422;2023-12-20T14:00:16;28.40;32.00
17437;DHT22;73152;52.198;5.422;2023-12-20T14:02:46;28.70;31.00
17437;DHT22;73152;52.198;5.422;2023-12-20T14:05:15;28.90;30.70
17437;DHT22;73152;52.198;5.422;2023-12-20T14:07:45;29.20;30.50
17437;DHT22;73152;52.198;5.422;2023-12-20T14:10:16;29.30;30.30
17437;DHT22;73152;52.198;5.422;2023-12-20T14:12:45;29.40;30.30
17437;DHT22;73152;52.198;5.422;2023-12-20T14:15:14;29.30;30.30
17437;DHT22;73152;52.198;5.422;2023-12-20T14:17:43;29.20;30.40
17437;DHT22;73152;52.198;5.422;2023-12-20T14:20:12;28.90;30.60
17437;DHT22;73152;52.198;5.422;2023-12-20T14:22:42;28.70;31.00
17437;DHT22;73152;52.198;5.422;2023-12-20T14:25:12;28.40;31.40
17437;DHT22;73152;52.198;5.422;2023-12-20T14:27:44;28.10;31.80
17437;DHT22;73152;52.198;5.422;2023-12-20T14:30:13;27.80;32.10
17437;DHT22;73152;52.198;5.422;2023-12-20T14:32:42;27.60;32.90
17437;DHT22;73152;52.198;5.422;2023-12-20T14:35:13;27.30;33.40
17437;DHT22;73152;52.198;5.422;2023-12-20T14:37:42;26.90;33.80
17437;DHT22;73152;52.198;5.422;2023-12-20T14:40:11;26.70;34.50
17437;DHT22;73152;52.198;5.422;2023-12-20T14:42:45;26.50;35.10
17437;DHT22;73152;52.198;5.422;2023-12-20T14:45:14;26.40;35.50
17437;DHT22;73152;52.198;5.422;2023-12-20T14:47:45;26.30;35.60
17437;DHT22;73152;52.198;5.422;2023-12-20T14:50:14;26.30;35.80
17437;DHT22;73152;52.198;5.422;2023-12-20T14:52:44;26.20;35.90
17437;DHT22;73152;52.198;5.422;2023-12-20T14:55:14;26.10;36.10
17437;DHT22;73152;52.198;5.422;2023-12-20T14:57:46;26.10;36.20
17437;DHT22;73152;52.198;5.422;2023-12-20T15:00:15;26.00;36.40
17437;DHT22;73152;52.198;5.422;2023-12-20T15:02:45;25.80;36.70
17437;DHT22;73152;52.198;5.422;2023-12-20T15:05:14;25.70;36.80
17437;DHT22;73152;52.198;5.422;2023-12-20T15:07:43;25.60;37.10
17437;DHT22;73152;52.198;5.422;2023-12-20T15:10:12;25.40;37.20
17437;DHT22;73152;52.198;5.422;2023-12-20T15:12:45;25.30;37.40
17437;DHT22;73152;52.198;5.422;2023-12-20T15:15:14;25.20;37.60
17437;DHT22;73152;52.198;5.422;2023-12-20T15:17:43;25.20;37.70
17437;DHT22;73152;52.198;5.422;2023-12-20T15:20:12;25.10;37.80
17437;DHT22;73152;52.198;5.422;2023-12-20T15:22:41;25.10;37.90
17437;DHT22;73152;52.198;5.422;2023-12-20T15:25:11;25.10;39.00
17437;DHT22;73152;52.198;5.422;2023-12-20T15:27:48;25.10;38.90
17437;DHT22;73152;52.198;5.422;2023-12-20T15:30:18;25.10;39.20
17437;DHT22;73152;52.198;5.422;2023-12-20T15:32:49;25.10;39.40
17437;DHT22;73152;52.198;5.422;2023-12-20T15:35:17;25.10;39.70
17437;DHT22;73152;52.198;5.422;2023-12-20T15:37:46;25.10;40.00
17437;DHT22;73152;52.198;5.422;2023-12-20T15:40:16;25.10;40.20
17437;DHT22;73152;52.198;5.422;2023-12-20T15:42:48;25.10;40.30
17437;DHT22;73152;52.198;5.422;2023-12-20T15:45:17;25.00;40.50
17437;DHT22;73152;52.198;5.422;2023-12-20T15:47:46;24.90;40.70